Time;durP1;ratioP1;P1;durP2;ratioP2;P2;SDS_P1;SDS_P2;PMS_P1;PMS_P2;Temp;Humidity;BMP_temperature;BMP_pressure;BME280_temperature;BME280_humidity;BME280_pressure;Samples;Min_cycle;Max_cycle;Signal;HPM_P1;HPM_P2
2021/03/05 00:00:11;;;;;;;4.57;1.10;;;;;;;;;;5149415;27;20458;-82
2021/03/05 00:02:39;;;;;;;4.00;0.80;;;;;;;;;;5148668;27;20443;-81
2021/03/05 00:05:07;;;;;;;8.40;1.30;;;;;;;;;;5148203;27;20464;-83
2021/03/05 00:07:34;;;;;;;3.10;1.83;;;;;;;;;;5149616;27;20454;-82
2021/03/05 00:10:05;;;;;;;2.80;0.87;;;;;;;;;;5149411;28;20458;-83
2021/03/05 00:12:34;;;;;;;7.00;1.40;;;;;;;;;;5148665;28;20589;-83
2021/03/05 00:15:01;;;;;;;5.97;1.20;;;;;;;;;;5147842;28;20459;-83
2021/03/05 00:17:29;;;;;;;2.70;0.83;;;;;;;;;;5147782;28;20454;-83
2021/03/05 00:19:56;;;;;;;4.27;1.47;;;;;;;;;;5149872;28;20450;-83
2021/03/05 00:22:25;;;;;;;10.17;1.80;;;;;;;;;;5146905;28;20443;-83
2021/03/05 00:24:52;;;;;;;1.60;0.90;;;;;;;;;;5147926;28;20446;-83
2021/03/05 00:27:21;;;;;;;3.80;1.33;;;;;;;;;;5146752;28;20462;-82
2021/03/05 00:29:48;;;;;;;2.60;0.87;;;;;;;;;;5145713;28;20446;-82
2021/03/05 00:32:16;;;;;;;6.63;1.30;;;;;;;;;;5145532;28;20482;-83
2021/03/05 00:34:43;;;;;;;3.87;1.20;;;;;;;;;;5145682;28;20450;-82
2021/03/05 00:37:10;;;;;;;4.30;1.17;;;;;;;;;;5146740;28;20500;-82
2021/03/05 00:39:38;;;;;;;2.43;1.00;;;;;;;;;;5145528;28;20457;-82
2021/03/05 00:42:05;;;;;;;3.83;1.30;;;;;;;;;;5143903;28;20435;-83
2021/03/05 00:44:34;;;;;;;3.33;1.03;;;;;;;;;;5147085;28;20545;-81
2021/03/05 00:47:01;;;;;;;1.60;0.70;;;;;;;;;;5144613;28;20446;-82
2021/03/05 00:49:28;;;;;;;4.90;1.43;;;;;;;;;;5147911;28;20539;-83
2021/03/05 00:51:56;;;;;;;3.80;1.30;;;;;;;;;;5150169;28;20478;-81
2021/03/05 00:54:24;;;;;;;2.10;1.17;;;;;;;;;;5148604;28;20455;-82
2021/03/05 00:56:51;;;;;;;4.67;2.70;;;;;;;;;;5148500;28;20449;-82
2021/03/05 00:59:19;;;;;;;2.13;1.00;;;;;;;;;;5150406;28;20490;-81
2021/03/05 01:01:47;;;;;;;2.37;0.80;;;;;;;;;;5148970;28;20827;-82
2021/03/05 01:04:15;;;;;;;1.70;0.90;;;;;;;;;;5149068;28;20477;-82
2021/03/05 01:06:43;;;;;;;3.87;1.33;;;;;;;;;;5148749;27;20454;-83
2021/03/05 01:09:11;;;;;;;2.40;1.37;;;;;;;;;;5151268;27;20462;-83
2021/03/05 01:11:38;;;;;;;2.70;1.10;;;;;;;;;;5152735;27;20482;-81
2021/03/05 01:14:06;;;;;;;1.57;0.87;;;;;;;;;;5150472;27;20527;-81
2021/03/05 01:16:33;;;;;;;3.93;1.43;;;;;;;;;;5152788;27;20476;-83
2021/03/05 01:19:01;;;;;;;1.63;0.80;;;;;;;;;;5149650;27;20564;-82
2021/03/05 01:21:31;;;;;;;1.70;0.90;;;;;;;;;;5151618;27;20556;-81
2021/03/05 01:23:58;;;;;;;1.40;0.80;;;;;;;;;;5152414;27;20454;-82
2021/03/05 01:26:26;;;;;;;5.10;1.20;;;;;;;;;;5151166;27;20799;-82
2021/03/05 01:28:53;;;;;;;1.83;0.60;;;;;;;;;;5153426;27;20461;-82
2021/03/05 01:31:20;;;;;;;1.63;0.87;;;;;;;;;;5151324;27;20482;-80
2021/03/05 01:33:48;;;;;;;4.43;0.90;;;;;;;;;;5152660;27;20462;-82
2021/03/05 01:36:16;;;;;;;3.90;1.17;;;;;;;;;;5152520;27;20529;-83
2021/03/05 01:38:43;;;;;;;6.90;1.43;;;;;;;;;;5152122;27;20912;-82
2021/03/05 01:41:11;;;;;;;2.20;1.00;;;;;;;;;;5152495;27;20451;-83
2021/03/05 01:43:39;;;;;;;2.23;0.80;;;;;;;;;;5152885;27;20427;-83
2021/03/05 01:46:07;;;;;;;3.13;1.50;;;;;;;;;;5150501;27;20470;-82
2021/03/05 01:48:35;;;;;;;7.23;1.47;;;;;;;;;;5151925;27;20451;-81
2021/03/05 01:51:09;;;;;;;3.73;1.00;;;;;;;;;;5150666;27;20493;-81
2021/03/05 01:53:38;;;;;;;3.53;0.80;;;;;;;;;;5151569;27;20438;-82
2021/03/05 01:56:06;;;;;;;3.33;0.90;;;;;;;;;;5151606;27;20450;-83
2021/03/05 01:58:34;;;;;;;6.10;1.13;;;;;;;;;;5151032;27;20843;-82
2021/03/05 02:01:02;;;;;;;3.80;1.17;;;;;;;;;;5152615;27;20459;-82
2021/03/05 02:03:31;;;;;;;2.53;1.07;;;;;;;;;;5151429;27;20446;-83
2021/03/05 02:05:59;;;;;;;4.43;1.33;;;;;;;;;;5151935;27;20488;-81
2021/03/05 02:08:28;;;;;;;2.20;1.20;;;;;;;;;;5151628;27;20475;-82
2021/03/05 02:10:57;;;;;;;2.80;0.70;;;;;;;;;;5150964;27;20483;-81
2021/03/05 02:13:24;;;;;;;3.33;1.10;;;;;;;;;;5152646;27;20453;-81
2021/03/05 02:15:57;;;;;;;1.77;0.80;;;;;;;;;;5149853;27;20788;-82
2021/03/05 02:18:28;;;;;;;3.10;1.17;;;;;;;;;;5152561;27;20756;-81
2021/03/05 02:21:08;;;;;;;5.43;1.63;;;;;;;;;;5153044;27;20564;-82
2021/03/05 02:23:50;;;;;;;3.07;0.83;;;;;;;;;;5149796;27;20454;-81
2021/03/05 02:26:52;;;;;;;3.87;1.00;;;;;;;;;;5152022;27;20458;-83
2021/03/05 02:29:47;;;;;;;5.83;1.30;;;;;;;;;;5152001;27;20527;-82
2021/03/05 02:32:17;;;;;;;2.63;1.07;;;;;;;;;;5151180;27;20497;-82
2021/03/05 02:34:47;;;;;;;3.90;1.23;;;;;;;;;;5151730;27;20450;-81
2021/03/05 02:37:17;;;;;;;4.53;0.93;;;;;;;;;;5151882;27;20447;-82
2021/03/05 02:39:46;;;;;;;2.90;1.17;;;;;;;;;;5150530;27;20788;-81
2021/03/05 02:42:17;;;;;;;2.80;1.00;;;;;;;;;;5151799;27;20468;-82
2021/03/05 02:44:46;;;;;;;6.27;1.20;;;;;;;;;;5152261;27;20519;-83
2021/03/05 02:47:15;;;;;;;8.67;1.10;;;;;;;;;;5151183;27;20543;-82
2021/03/05 02:49:44;;;;;;;2.83;1.00;;;;;;;;;;5150075;27;20462;-82
2021/03/05 02:52:15;;;;;;;5.87;0.97;;;;;;;;;;5152397;27;20482;-83
2021/03/05 02:54:43;;;;;;;2.40;1.00;;;;;;;;;;5152246;27;20447;-82
2021/03/05 02:57:18;;;;;;;3.20;0.93;;;;;;;;;;5151769;27;20461;-81
2021/03/05 02:59:46;;;;;;;1.80;1.03;;;;;;;;;;5151154;27;20455;-81
2021/03/05 03:02:14;;;;;;;1.43;0.90;;;;;;;;;;5149888;27;20457;-83
2021/03/05 03:04:44;;;;;;;7.07;1.13;;;;;;;;;;5151286;27;20458;-82
2021/03/05 03:07:14;;;;;;;1.50;0.80;;;;;;;;;;5151598;27;20527;-82
2021/03/05 03:09:42;;;;;;;5.70;1.30;;;;;;;;;;5149750;27;20426;-82
2021/03/05 03:12:10;;;;;;;3.53;1.00;;;;;;;;;;5146956;27;20486;-82
2021/03/05 03:14:50;;;;;;;5.73;1.40;;;;;;;;;;5146415;27;20453;-82
2021/03/05 03:17:18;;;;;;;1.20;0.70;;;;;;;;;;5145621;27;20459;-82
2021/03/05 03:19:48;;;;;;;2.00;0.90;;;;;;;;;;5147572;27;20454;-82
2021/03/05 03:22:15;;;;;;;11.30;1.43;;;;;;;;;;5145825;27;20862;-82
2021/03/05 03:24:43;;;;;;;3.50;0.70;;;;;;;;;;5144134;27;20877;-81
2021/03/05 03:27:11;;;;;;;3.00;1.10;;;;;;;;;;5145857;27;20464;-81
2021/03/05 03:29:41;;;;;;;2.30;1.20;;;;;;;;;;5147342;27;20455;-82
2021/03/05 03:32:10;;;;;;;3.40;1.00;;;;;;;;;;5148352;27;20500;-81
2021/03/05 03:34:38;;;;;;;4.97;1.47;;;;;;;;;;5149166;27;20451;-83
2021/03/05 03:37:06;;;;;;;3.87;0.90;;;;;;;;;;5148075;27;20726;-83
2021/03/05 03:39:34;;;;;;;2.37;1.00;;;;;;;;;;5148597;27;20449;-82
2021/03/05 03:42:06;;;;;;;6.10;1.70;;;;;;;;;;5147720;27;20727;-82
2021/03/05 03:44:33;;;;;;;4.17;1.53;;;;;;;;;;5145499;27;20513;-82
2021/03/05 03:47:01;;;;;;;2.87;0.90;;;;;;;;;;5145546;27;20930;-82
2021/03/05 03:49:37;;;;;;;3.67;1.57;;;;;;;;;;5147505;27;20454;-82
2021/03/05 03:52:08;;;;;;;4.90;1.40;;;;;;;;;;5148160;27;20477;-83
2021/03/05 03:54:38;;;;;;;2.90;1.00;;;;;;;;;;5148220;27;20749;-83
2021/03/05 03:57:06;;;;;;;4.00;1.13;;;;;;;;;;5147678;27;20457;-81
2021/03/05 03:59:33;;;;;;;3.30;1.17;;;;;;;;;;5147237;27;20480;-82
2021/03/05 04:02:01;;;;;;;2.10;1.40;;;;;;;;;;5149869;27;20451;-82
2021/03/05 04:04:32;;;;;;;4.63;1.40;;;;;;;;;;5146694;27;20458;-84
2021/03/05 04:07:00;;;;;;;27.00;7.87;;;;;;;;;;5149189;27;20588;-82
2021/03/05 04:09:28;;;;;;;5.80;1.33;;;;;;;;;;5148117;27;20742;-81
2021/03/05 04:11:57;;;;;;;3.30;0.90;;;;;;;;;;5148435;28;20486;-82
2021/03/05 04:14:25;;;;;;;3.93;1.23;;;;;;;;;;5147269;28;20676;-83
2021/03/05 04:16:53;;;;;;;4.90;1.10;;;;;;;;;;5147516;28;20451;-82
2021/03/05 04:19:21;;;;;;;2.77;1.20;;;;;;;;;;5147502;28;20510;-82
2021/03/05 04:21:49;;;;;;;2.23;1.00;;;;;;;;;;5148616;28;20765;-81
2021/03/05 04:24:16;;;;;;;2.20;1.03;;;;;;;;;;5146799;28;20453;-83
2021/03/05 04:26:45;;;;;;;5.80;1.47;;;;;;;;;;5148405;28;20486;-83
2021/03/05 04:29:13;;;;;;;7.67;1.00;;;;;;;;;;5148497;28;20457;-80
2021/03/05 04:31:40;;;;;;;2.07;0.90;;;;;;;;;;5149184;28;20486;-81
2021/03/05 04:34:08;;;;;;;6.00;1.40;;;;;;;;;;5146915;28;20458;-81
2021/03/05 04:36:35;;;;;;;4.43;1.10;;;;;;;;;;5147176;28;20865;-81
2021/03/05 04:39:03;;;;;;;6.13;1.50;;;;;;;;;;5147545;28;20463;-81
2021/03/05 04:41:30;;;;;;;2.10;1.27;;;;;;;;;;5148086;27;20442;-81
2021/03/05 04:43:58;;;;;;;3.30;1.07;;;;;;;;;;5152870;27;20458;-82
2021/03/05 04:46:27;;;;;;;4.47;1.17;;;;;;;;;;5151719;27;20458;-82
2021/03/05 04:48:54;;;;;;;1.93;1.00;;;;;;;;;;5151416;27;20450;-82
2021/03/05 04:51:22;;;;;;;4.10;1.20;;;;;;;;;;5152135;27;20577;-82
2021/03/05 04:53:51;;;;;;;7.23;1.60;;;;;;;;;;5150834;27;20431;-82
2021/03/05 04:56:21;;;;;;;3.23;1.60;;;;;;;;;;5150794;27;20874;-82
2021/03/05 04:58:49;;;;;;;4.43;1.37;;;;;;;;;;5152080;27;20461;-83
2021/03/05 05:01:16;;;;;;;3.87;1.43;;;;;;;;;;5151083;27;20465;-82
2021/03/05 05:03:45;;;;;;;2.13;1.37;;;;;;;;;;5153456;27;20517;-83
2021/03/05 05:06:12;;;;;;;22.63;1.57;;;;;;;;;;5152377;27;20454;-82
2021/03/05 05:08:40;;;;;;;3.57;1.33;;;;;;;;;;5153165;27;20454;-82
2021/03/05 05:11:08;;;;;;;3.87;0.97;;;;;;;;;;5153696;27;20478;-82
2021/03/05 05:13:36;;;;;;;2.13;1.10;;;;;;;;;;5152384;27;20449;-82
2021/03/05 05:16:04;;;;;;;1.57;0.97;;;;;;;;;;5150375;27;20858;-83
2021/03/05 05:18:31;;;;;;;2.33;0.97;;;;;;;;;;5151798;27;20449;-80
2021/03/05 05:21:00;;;;;;;9.03;1.60;;;;;;;;;;5151683;27;20455;-82
2021/03/05 05:23:28;;;;;;;11.70;1.87;;;;;;;;;;5151461;27;20455;-80
2021/03/05 05:25:56;;;;;;;8.07;1.47;;;;;;;;;;5151606;27;20518;-82
2021/03/05 05:28:23;;;;;;;4.33;1.20;;;;;;;;;;5151728;27;20511;-80
2021/03/05 05:30:55;;;;;;;4.50;0.93;;;;;;;;;;5151367;27;20755;-81
2021/03/05 05:33:22;;;;;;;9.50;3.37;;;;;;;;;;5151556;27;20461;-81
2021/03/05 05:35:50;;;;;;;8.57;1.67;;;;;;;;;;5151091;27;20447;-82
2021/03/05 05:38:19;;;;;;;5.77;2.00;;;;;;;;;;5152321;27;20458;-81
2021/03/05 05:40:47;;;;;;;1.53;1.00;;;;;;;;;;5149726;27;20460;-81
2021/03/05 05:43:14;;;;;;;7.00;1.73;;;;;;;;;;5151640;27;20466;-81
2021/03/05 05:45:42;;;;;;;7.20;1.57;;;;;;;;;;5151531;27;20442;-82
2021/03/05 05:48:12;;;;;;;2.70;1.20;;;;;;;;;;5151096;27;20458;-82
2021/03/05 05:50:40;;;;;;;2.07;1.00;;;;;;;;;;5151919;27;20530;-81
2021/03/05 05:53:09;;;;;;;3.10;1.33;;;;;;;;;;5150037;27;20481;-82
2021/03/05 05:55:38;;;;;;;4.20;1.60;;;;;;;;;;5151338;27;20731;-82
2021/03/05 05:58:06;;;;;;;3.40;1.63;;;;;;;;;;5151466;27;20455;-81
2021/03/05 06:00:34;;;;;;;8.47;1.63;;;;;;;;;;5150966;27;20456;-83
2021/03/05 06:03:08;;;;;;;6.30;1.70;;;;;;;;;;5152497;27;20508;-82
2021/03/05 06:05:36;;;;;;;2.83;1.10;;;;;;;;;;5151860;27;20518;-82
2021/03/05 06:08:04;;;;;;;3.30;1.40;;;;;;;;;;5151250;27;20462;-81
2021/03/05 06:10:32;;;;;;;6.33;1.30;;;;;;;;;;5148851;27;20451;-80
2021/03/05 06:13:01;;;;;;;5.57;1.50;;;;;;;;;;5147696;27;20486;-82
2021/03/05 06:15:30;;;;;;;5.30;1.40;;;;;;;;;;5149817;27;20474;-82
2021/03/05 06:18:03;;;;;;;8.50;1.57;;;;;;;;;;5149715;27;20455;-81
2021/03/05 06:20:47;;;;;;;3.43;1.60;;;;;;;;;;5149723;27;20450;-82
2021/03/05 06:23:15;;;;;;;1.80;1.30;;;;;;;;;;5150309;27;20455;-82
2021/03/05 06:25:43;;;;;;;10.50;1.83;;;;;;;;;;5150539;27;20447;-81
2021/03/05 06:28:16;;;;;;;1.70;1.00;;;;;;;;;;5148470;27;20503;-82
2021/03/05 06:30:44;;;;;;;8.93;2.13;;;;;;;;;;5149285;27;20781;-81
2021/03/05 06:39:12;;;;;;;10.80;4.73;;;;;;;;;;5119857;22;20434;-71
2021/03/05 06:41:41;;;;;;;4.60;2.40;;;;;;;;;;5116951;27;20543;-70
2021/03/05 06:44:10;;;;;;;2.70;1.73;;;;;;;;;;5117989;27;20448;-70
2021/03/05 06:46:38;;;;;;;3.00;1.80;;;;;;;;;;5118488;27;20455;-70
2021/03/05 06:49:07;;;;;;;4.83;3.13;;;;;;;;;;5116685;28;20500;-70
2021/03/05 06:51:35;;;;;;;10.33;4.37;;;;;;;;;;5109565;28;20484;-70
2021/03/05 06:57:07;;;;;;;4.20;2.57;;;;;;;;;;5099694;28;20426;-71
2021/03/05 06:59:39;;;;;;;2.43;1.90;;;;;;;;;;5118731;27;20466;-71
2021/03/05 07:02:09;;;;;;;4.90;1.40;;;;;;;;;;5103936;28;20452;-70
2021/03/05 07:04:37;;;;;;;3.17;1.80;;;;;;;;;;5096740;28;20567;-72
2021/03/05 07:07:06;;;;;;;9.77;2.80;;;;;;;;;;5111985;27;20532;-71
2021/03/05 07:09:34;;;;;;;5.93;2.43;;;;;;;;;;5119201;27;20483;-71
2021/03/05 07:12:02;;;;;;;4.77;2.03;;;;;;;;;;5097134;28;20483;-71
2021/03/05 07:14:33;;;;;;;8.50;2.20;;;;;;;;;;5106657;28;20494;-70
2021/03/05 07:17:02;;;;;;;4.80;3.00;;;;;;;;;;5115979;27;20455;-69
2021/03/05 07:19:31;;;;;;;9.80;2.30;;;;;;;;;;5117969;27;20494;-69
2021/03/05 07:21:59;;;;;;;4.20;1.70;;;;;;;;;;5116768;28;20489;-70
2021/03/05 07:24:27;;;;;;;5.63;1.40;;;;;;;;;;5118605;27;20478;-69
2021/03/05 07:27:00;;;;;;;3.57;2.17;;;;;;;;;;5116843;27;20454;-70
2021/03/05 07:29:28;;;;;;;3.70;1.73;;;;;;;;;;5116324;27;20474;-70
2021/03/05 07:32:01;;;;;;;6.40;2.00;;;;;;;;;;5117731;27;20521;-70
2021/03/05 07:34:30;;;;;;;4.47;2.10;;;;;;;;;;5117458;27;20459;-71
2021/03/05 07:36:59;;;;;;;3.50;1.47;;;;;;;;;;5117741;27;20474;-70
2021/03/05 07:39:28;;;;;;;3.63;1.87;;;;;;;;;;5113285;28;20459;-70
2021/03/05 07:41:59;;;;;;;5.20;2.40;;;;;;;;;;5116433;28;20502;-71
2021/03/05 07:44:27;;;;;;;6.87;2.07;;;;;;;;;;5118863;27;20539;-70
2021/03/05 07:46:55;;;;;;;8.13;3.33;;;;;;;;;;5117580;27;20456;-70
2021/03/05 07:49:40;;;;;;;8.07;2.20;;;;;;;;;;5117275;27;20468;-70
2021/03/05 07:52:09;;;;;;;7.20;2.53;;;;;;;;;;5117076;27;20491;-70
2021/03/05 07:54:48;;;;;;;3.40;1.40;;;;;;;;;;5116444;27;20470;-71
2021/03/05 07:57:33;;;;;;;4.43;1.50;;;;;;;;;;5116916;28;20455;-70
2021/03/05 08:00:02;;;;;;;11.17;2.60;;;;;;;;;;5109252;28;20903;-70
2021/03/05 08:02:49;;;;;;;6.27;2.20;;;;;;;;;;5096134;28;20467;-71
2021/03/05 08:05:31;;;;;;;5.83;2.07;;;;;;;;;;5095552;28;21198;-70
2021/03/05 08:08:09;;;;;;;3.57;1.80;;;;;;;;;;5098197;28;20484;-70
2021/03/05 08:10:38;;;;;;;3.30;1.43;;;;;;;;;;5100171;28;20754;-71
2021/03/05 08:13:21;;;;;;;5.47;1.47;;;;;;;;;;5111511;28;20502;-70
2021/03/05 08:15:48;;;;;;;3.07;1.80;;;;;;;;;;5115436;28;21068;-70
2021/03/05 08:18:20;;;;;;;1.97;1.53;;;;;;;;;;5115879;28;20448;-70
2021/03/05 08:20:55;;;;;;;3.10;1.87;;;;;;;;;;5117429;28;20520;-71
2021/03/05 08:23:28;;;;;;;12.70;2.10;;;;;;;;;;5115615;28;20461;-71
2021/03/05 08:25:57;;;;;;;3.77;1.70;;;;;;;;;;5116202;28;20470;-71
2021/03/05 08:28:38;;;;;;;6.43;2.13;;;;;;;;;;5111893;28;20494;-71
2021/03/05 08:31:20;;;;;;;2.13;1.10;;;;;;;;;;5115480;28;20455;-70
2021/03/05 08:34:06;;;;;;;2.40;1.03;;;;;;;;;;5116302;28;20477;-71
2021/03/05 08:36:52;;;;;;;4.13;1.33;;;;;;;;;;5109754;28;20452;-71
2021/03/05 08:39:31;;;;;;;4.80;1.77;;;;;;;;;;5093861;28;20528;-70
2021/03/05 08:42:25;;;;;;;4.53;1.87;;;;;;;;;;5095755;28;20463;-70
2021/03/05 08:45:15;;;;;;;5.90;1.60;;;;;;;;;;5067186;28;20554;-70
2021/03/05 08:50:30;;;;;;;4.97;1.50;;;;;;;;;;5116480;28;20454;-71
2021/03/05 08:53:03;;;;;;;12.33;1.27;;;;;;;;;;5118498;28;20490;-70
2021/03/05 08:55:31;;;;;;;3.50;1.43;;;;;;;;;;5116175;28;20487;-70
2021/03/05 08:58:00;;;;;;;7.90;1.73;;;;;;;;;;5116744;28;20458;-70
2021/03/05 09:00:30;;;;;;;5.60;1.60;;;;;;;;;;5121264;28;20458;-71
2021/03/05 09:03:05;;;;;;;3.63;1.53;;;;;;;;;;5123990;28;20442;-71
2021/03/05 09:05:33;;;;;;;6.07;1.77;;;;;;;;;;5123067;27;20526;-70
2021/03/05 09:08:01;;;;;;;11.13;2.00;;;;;;;;;;5128214;27;20454;-71
2021/03/05 09:10:40;;;;;;;6.93;1.50;;;;;;;;;;5134244;27;20541;-70
2021/03/05 09:13:08;;;;;;;2.83;1.50;;;;;;;;;;5135781;27;20815;-70
2021/03/05 09:15:50;;;;;;;7.83;1.80;;;;;;;;;;5133819;27;20869;-70
2021/03/05 09:18:20;;;;;;;2.00;0.97;;;;;;;;;;5136787;27;20466;-70
2021/03/05 09:20:49;;;;;;;2.80;1.57;;;;;;;;;;5135422;27;20755;-70
2021/03/05 09:23:25;;;;;;;3.57;2.07;;;;;;;;;;5135953;27;20488;-70
2021/03/05 09:26:04;;;;;;;2.80;1.60;;;;;;;;;;5133911;27;20527;-71
2021/03/05 09:28:50;;;;;;;2.60;1.70;;;;;;;;;;5122520;27;20473;-70
2021/03/05 09:31:24;;;;;;;1.80;1.13;;;;;;;;;;5124660;27;20454;-70
2021/03/05 09:33:52;;;;;;;2.00;1.03;;;;;;;;;;5124720;27;20502;-70
2021/03/05 09:36:21;;;;;;;5.80;3.13;;;;;;;;;;5127794;27;20886;-70
2021/03/05 09:38:56;;;;;;;7.40;1.50;;;;;;;;;;5130717;27;20557;-71
2021/03/05 09:44:10;;;;;;;2.70;1.10;;;;;;;;;;5138020;27;20440;-71
2021/03/05 09:46:39;;;;;;;3.60;1.47;;;;;;;;;;5125925;27;20470;-70
2021/03/05 09:49:22;;;;;;;3.37;0.93;;;;;;;;;;5121124;27;20461;-71
2021/03/05 09:51:50;;;;;;;5.70;1.13;;;;;;;;;;5137174;27;20485;-70
2021/03/05 09:54:19;;;;;;;4.77;1.83;;;;;;;;;;5118997;27;20905;-71
2021/03/05 09:56:51;;;;;;;4.20;1.97;;;;;;;;;;5120416;27;20449;-71
2021/03/05 09:59:20;;;;;;;5.03;0.97;;;;;;;;;;5119460;27;20876;-70
2021/03/05 10:01:47;;;;;;;1.87;1.00;;;;;;;;;;5130234;27;20576;-70
2021/03/05 10:04:16;;;;;;;4.90;1.13;;;;;;;;;;5124224;27;20455;-70
2021/03/05 10:07:09;;;;;;;2.47;1.37;;;;;;;;;;5125795;27;20456;-71
2021/03/05 10:09:39;;;;;;;1.40;0.70;;;;;;;;;;5122505;27;20444;-70
2021/03/05 10:12:13;;;;;;;3.20;1.00;;;;;;;;;;5119134;27;20490;-70
2021/03/05 10:14:41;;;;;;;4.03;1.10;;;;;;;;;;5125910;27;20522;-70
2021/03/05 10:17:21;;;;;;;2.00;0.90;;;;;;;;;;5138602;27;20877;-70
2021/03/05 10:19:49;;;;;;;2.23;0.87;;;;;;;;;;5122897;27;20457;-69
2021/03/05 10:22:18;;;;;;;3.50;1.40;;;;;;;;;;5117949;27;20462;-70
2021/03/05 10:24:45;;;;;;;6.80;1.40;;;;;;;;;;5117744;27;20554;-69
2021/03/05 10:27:16;;;;;;;1.70;0.90;;;;;;;;;;5121533;27;20464;-70
2021/03/05 10:29:47;;;;;;;2.17;1.03;;;;;;;;;;5119091;27;21211;-70
2021/03/05 10:32:40;;;;;;;2.27;0.80;;;;;;;;;;5117490;27;20492;-69
2021/03/05 10:35:10;;;;;;;4.30;1.00;;;;;;;;;;5117573;27;20492;-69
2021/03/05 10:37:37;;;;;;;5.57;1.30;;;;;;;;;;5118677;27;20467;-69
2021/03/05 10:40:08;;;;;;;3.30;1.20;;;;;;;;;;5117454;27;20752;-70
2021/03/05 10:42:36;;;;;;;3.10;1.00;;;;;;;;;;5119420;27;20465;-70
2021/03/05 10:45:04;;;;;;;1.40;0.70;;;;;;;;;;5118597;27;20446;-69
2021/03/05 10:47:33;;;;;;;1.73;1.00;;;;;;;;;;5117871;27;20525;-70
2021/03/05 10:50:01;;;;;;;2.33;1.30;;;;;;;;;;5118818;27;20476;-69
2021/03/05 10:52:29;;;;;;;2.30;1.00;;;;;;;;;;5117385;27;20718;-69
2021/03/05 10:54:59;;;;;;;3.40;0.93;;;;;;;;;;5118414;27;20219;-70
2021/03/05 10:57:27;;;;;;;5.83;1.83;;;;;;;;;;5117982;27;20464;-68
2021/03/05 10:59:56;;;;;;;2.43;1.13;;;;;;;;;;5137822;27;20767;-71
2021/03/05 11:02:24;;;;;;;2.90;1.00;;;;;;;;;;5139491;27;20458;-70
2021/03/05 11:04:51;;;;;;;4.00;1.00;;;;;;;;;;5138470;27;20442;-70
2021/03/05 11:07:22;;;;;;;3.77;1.23;;;;;;;;;;5124815;27;20468;-71
2021/03/05 11:09:51;;;;;;;4.00;1.13;;;;;;;;;;5117897;27;20447;-71
2021/03/05 11:12:18;;;;;;;5.27;1.50;;;;;;;;;;5132953;27;20489;-70
2021/03/05 11:14:46;;;;;;;4.70;1.70;;;;;;;;;;5120936;27;20471;-71
2021/03/05 11:17:14;;;;;;;4.20;1.20;;;;;;;;;;5122818;27;20553;-70
2021/03/05 11:19:41;;;;;;;3.33;1.33;;;;;;;;;;5117022;27;20557;-68
2021/03/05 11:22:14;;;;;;;4.17;1.57;;;;;;;;;;5117798;27;20473;-70
2021/03/05 11:24:50;;;;;;;7.30;2.20;;;;;;;;;;5118079;27;20445;-69
2021/03/05 11:27:17;;;;;;;3.43;1.17;;;;;;;;;;5116307;28;20460;-69
2021/03/05 11:29:44;;;;;;;4.30;1.70;;;;;;;;;;5132612;27;20461;-70
2021/03/05 11:32:12;;;;;;;3.03;0.83;;;;;;;;;;5130720;27;20503;-70
2021/03/05 11:35:11;;;;;;;2.87;1.53;;;;;;;;;;5134590;27;21111;-71
2021/03/05 11:37:40;;;;;;;2.73;1.40;;;;;;;;;;5135127;27;20527;-71
2021/03/05 11:40:09;;;;;;;1.73;0.90;;;;;;;;;;5132977;27;20538;-69
2021/03/05 11:42:36;;;;;;;14.23;1.93;;;;;;;;;;5134350;27;20443;-68
2021/03/05 11:45:05;;;;;;;2.23;1.13;;;;;;;;;;5134789;27;20527;-68
2021/03/05 11:47:34;;;;;;;3.43;1.50;;;;;;;;;;5132969;27;20449;-69
2021/03/05 11:50:02;;;;;;;2.40;1.40;;;;;;;;;;5128430;28;20438;-69
2021/03/05 11:52:29;;;;;;;3.57;1.40;;;;;;;;;;5132949;28;20456;-70
2021/03/05 11:55:00;;;;;;;3.03;1.20;;;;;;;;;;5133847;28;20453;-70
2021/03/05 11:57:27;;;;;;;1.57;0.77;;;;;;;;;;5134637;28;20750;-70
2021/03/05 11:59:55;;;;;;;1.70;1.20;;;;;;;;;;5132962;28;20516;-70
2021/03/05 12:02:24;;;;;;;2.20;0.97;;;;;;;;;;5134225;28;20457;-69
2021/03/05 12:05:00;;;;;;;3.47;2.57;;;;;;;;;;5118189;28;20521;-70
2021/03/05 12:07:28;;;;;;;3.57;1.17;;;;;;;;;;5112445;28;20448;-70
2021/03/05 12:09:55;;;;;;;2.23;1.00;;;;;;;;;;5112457;28;20454;-69
2021/03/05 12:12:23;;;;;;;3.07;1.17;;;;;;;;;;5112758;28;20475;-69
2021/03/05 12:14:51;;;;;;;4.20;1.57;;;;;;;;;;5112411;28;20525;-70
2021/03/05 12:17:23;;;;;;;3.00;1.40;;;;;;;;;;5112306;28;20789;-70
2021/03/05 12:19:52;;;;;;;1.10;0.60;;;;;;;;;;5112563;28;20504;-70
2021/03/05 12:22:31;;;;;;;1.30;0.80;;;;;;;;;;5130488;28;20458;-70
2021/03/05 12:25:11;;;;;;;1.90;0.80;;;;;;;;;;5119898;28;20781;-70
2021/03/05 12:27:46;;;;;;;1.83;0.97;;;;;;;;;;5132098;27;20454;-70
2021/03/05 12:30:17;;;;;;;3.00;1.50;;;;;;;;;;5126941;28;20958;-69
2021/03/05 12:32:46;;;;;;;6.20;1.37;;;;;;;;;;5130276;28;20517;-70
2021/03/05 12:35:15;;;;;;;1.70;1.10;;;;;;;;;;5120124;27;20894;-71
2021/03/05 12:37:45;;;;;;;5.03;2.67;;;;;;;;;;5132490;27;20464;-70
2021/03/05 12:40:18;;;;;;;11.03;1.70;;;;;;;;;;5132676;27;20712;-69
2021/03/05 12:42:54;;;;;;;5.73;1.43;;;;;;;;;;5119639;28;20497;-70
2021/03/05 12:45:27;;;;;;;4.07;1.00;;;;;;;;;;5102671;28;20466;-70
2021/03/05 12:48:02;;;;;;;5.07;1.10;;;;;;;;;;5099065;28;20547;-70
2021/03/05 12:50:37;;;;;;;1.93;0.80;;;;;;;;;;5096358;28;20504;-71
2021/03/05 12:53:09;;;;;;;2.27;1.10;;;;;;;;;;5099100;28;20551;-70
2021/03/05 12:55:45;;;;;;;2.50;1.20;;;;;;;;;;5099775;28;20468;-70
2021/03/05 12:58:21;;;;;;;3.30;1.00;;;;;;;;;;5096423;28;20494;-70
2021/03/05 13:01:00;;;;;;;2.73;0.97;;;;;;;;;;5097684;28;20721;-69
2021/03/05 13:03:42;;;;;;;2.00;0.90;;;;;;;;;;5095949;28;20451;-70
2021/03/05 13:06:13;;;;;;;2.50;1.03;;;;;;;;;;5114533;28;20461;-71
2021/03/05 13:08:41;;;;;;;2.70;0.80;;;;;;;;;;5118308;28;20948;-71
2021/03/05 13:11:17;;;;;;;3.00;1.67;;;;;;;;;;5116815;28;20530;-70
2021/03/05 13:13:58;;;;;;;4.90;1.63;;;;;;;;;;5117566;28;20481;-70
2021/03/05 13:16:31;;;;;;;1.30;0.60;;;;;;;;;;5117661;28;20943;-70
2021/03/05 13:19:03;;;;;;;1.97;1.03;;;;;;;;;;5118019;28;20451;-70
2021/03/05 13:21:33;;;;;;;2.30;0.70;;;;;;;;;;5117668;28;20451;-71
2021/03/05 13:24:05;;;;;;;1.97;0.70;;;;;;;;;;5119014;27;20455;-69
2021/03/05 13:26:37;;;;;;;1.20;0.60;;;;;;;;;;5118123;28;20447;-71
2021/03/05 13:29:20;;;;;;;2.70;0.73;;;;;;;;;;5118519;28;20459;-73
2021/03/05 13:34:51;;;;;;;6.20;0.83;;;;;;;;;;5113777;28;20552;-70
2021/03/05 13:37:26;;;;;;;3.27;1.00;;;;;;;;;;5119545;28;20451;-71
2021/03/05 13:40:11;;;;;;;2.90;0.70;;;;;;;;;;5119280;28;20530;-70
2021/03/05 13:42:50;;;;;;;3.80;1.00;;;;;;;;;;5119790;28;20869;-70
2021/03/05 13:45:19;;;;;;;1.30;0.50;;;;;;;;;;5118368;28;20560;-70
2021/03/05 13:47:47;;;;;;;1.20;0.50;;;;;;;;;;5118449;28;20773;-70
2021/03/05 13:50:18;;;;;;;2.97;0.90;;;;;;;;;;5119585;28;20443;-69
2021/03/05 13:52:49;;;;;;;1.47;0.60;;;;;;;;;;5116879;28;20457;-70
2021/03/05 13:55:17;;;;;;;3.97;0.70;;;;;;;;;;5118618;28;20851;-69
2021/03/05 13:58:03;;;;;;;3.03;0.80;;;;;;;;;;5116161;28;20455;-70
2021/03/05 14:00:32;;;;;;;1.80;1.17;;;;;;;;;;5115246;28;20788;-70
2021/03/05 14:03:09;;;;;;;2.90;0.80;;;;;;;;;;5114792;28;20494;-70
2021/03/05 14:05:42;;;;;;;1.37;0.70;;;;;;;;;;5091527;28;20507;-70
2021/03/05 14:08:13;;;;;;;1.87;0.80;;;;;;;;;;5098480;28;20452;-70
2021/03/05 14:10:52;;;;;;;1.87;0.80;;;;;;;;;;5096523;28;20514;-69
2021/03/05 14:13:30;;;;;;;6.60;1.33;;;;;;;;;;5097464;28;20481;-70
2021/03/05 14:16:02;;;;;;;1.60;1.00;;;;;;;;;;5096634;28;20462;-70
2021/03/05 14:18:37;;;;;;;2.07;0.83;;;;;;;;;;5097771;28;20453;-70
2021/03/05 14:21:15;;;;;;;2.00;0.70;;;;;;;;;;5096925;28;20543;-69
2021/03/05 14:23:52;;;;;;;3.30;0.80;;;;;;;;;;5095345;28;20445;-70
2021/03/05 14:26:29;;;;;;;1.53;0.70;;;;;;;;;;5108158;28;20465;-71
2021/03/05 14:29:06;;;;;;;1.40;0.70;;;;;;;;;;5118006;28;20454;-70
2021/03/05 14:31:43;;;;;;;1.30;0.60;;;;;;;;;;5115498;28;20699;-71
2021/03/05 14:34:18;;;;;;;9.50;1.53;;;;;;;;;;5115679;28;20752;-70
2021/03/05 14:37:00;;;;;;;;;;;;;;;;;;;;;
2021/03/05 14:39:31;;;;;;;1.77;0.77;;;;;;;;;;5115720;28;20450;-70
2021/03/05 14:42:06;;;;;;;2.20;1.07;;;;;;;;;;5115874;28;20477;-70
2021/03/05 14:44:39;;;;;;;2.07;0.93;;;;;;;;;;5127577;27;20485;-71
2021/03/05 14:47:22;;;;;;;1.63;0.90;;;;;;;;;;5138261;27;20446;-71
2021/03/05 14:49:52;;;;;;;2.53;1.27;;;;;;;;;;5096487;28;20852;-70
2021/03/05 14:52:24;;;;;;;1.30;0.60;;;;;;;;;;5093887;28;20675;-71
2021/03/05 14:54:59;;;;;;;1.70;1.00;;;;;;;;;;5096626;28;20497;-70
2021/03/05 14:57:40;;;;;;;1.50;0.73;;;;;;;;;;5095952;28;20456;-70
2021/03/05 15:00:10;;;;;;;2.60;0.60;;;;;;;;;;5113679;28;20459;-70
2021/03/05 15:02:48;;;;;;;2.70;0.70;;;;;;;;;;5108950;28;20448;-71
2021/03/05 15:05:25;;;;;;;1.60;0.60;;;;;;;;;;5114293;28;20471;-71
2021/03/05 15:07:55;;;;;;;1.10;0.50;;;;;;;;;;5116903;28;20447;-70
2021/03/05 15:10:30;;;;;;;2.53;0.90;;;;;;;;;;5117785;28;20767;-70
2021/03/05 15:13:01;;;;;;;3.20;1.10;;;;;;;;;;5122498;27;21060;-71
2021/03/05 15:18:35;;;;;;;1.63;1.17;;;;;;;;;;5115902;28;20439;-70
2021/03/05 15:21:21;;;;;;;1.80;0.90;;;;;;;;;;5114378;28;20445;-70
2021/03/05 15:23:53;;;;;;;1.60;0.80;;;;;;;;;;5116605;28;20439;-71
2021/03/05 15:26:27;;;;;;;1.40;0.73;;;;;;;;;;5116292;28;20785;-71